sensor_id;sensor_type;location;lat;lon;timestamp;pressure;altitude;pressure_sealevel;temperature;humidity
65376;BME280;51976;47.332;9.404;2023-09-12T00:02:05;92594.41;;;18.82;63.14
65376;BME280;51976;47.332;9.404;2023-09-12T00:04:30;92600.19;;;18.47;64.27
65376;BME280;51976;47.332;9.404;2023-09-12T00:06:56;92591.94;;;18.35;64.85
65376;BME280;51976;47.332;9.404;2023-09-12T00:09:21;92588.66;;;18.30;64.48
65376;BME280;51976;47.332;9.404;2023-09-12T00:11:47;92592.84;;;18.27;64.88
65376;BME280;51976;47.332;9.404;2023-09-12T00:14:15;92598.44;;;18.10;65.22
65376;BME280;51976;47.332;9.404;2023-09-12T00:16:41;92597.31;;;18.11;65.37
65376;BME280;51976;47.332;9.404;2023-09-12T00:19:06;92587.13;;;18.20;65.17
65376;BME280;51976;47.332;9.404;2023-09-12T00:21:32;92583.47;;;18.16;65.04
65376;BME280;51976;47.332;9.404;2023-09-12T00:23:57;92580.47;;;18.30;64.78
65376;BME280;51976;47.332;9.404;2023-09-12T00:26:23;92585.03;;;18.38;64.54
65376;BME280;51976;47.332;9.404;2023-09-12T00:28:48;92584.94;;;18.46;64.23
65376;BME280;51976;47.332;9.404;2023-09-12T00:31:13;92576.88;;;18.50;64.15
65376;BME280;51976;47.332;9.404;2023-09-12T00:33:39;92576.34;;;18.56;64.31
65376;BME280;51976;47.332;9.404;2023-09-12T00:36:04;92576.88;;;18.50;64.45
65376;BME280;51976;47.332;9.404;2023-09-12T00:38:29;92577.09;;;18.45;64.65
65376;BME280;51976;47.332;9.404;2023-09-12T00:40:55;92570.38;;;18.42;64.40
65376;BME280;51976;47.332;9.404;2023-09-12T00:43:20;92565.72;;;18.43;64.32
65376;BME280;51976;47.332;9.404;2023-09-12T00:45:46;92575.84;;;18.42;64.15
65376;BME280;51976;47.332;9.404;2023-09-12T00:48:12;92569.38;;;18.14;64.84
65376;BME280;51976;47.332;9.404;2023-09-12T00:50:39;92575.22;;;18.24;65.21
65376;BME280;51976;47.332;9.404;2023-09-12T00:53:05;92575.91;;;18.34;64.87
65376;BME280;51976;47.332;9.404;2023-09-12T00:55:32;92576.16;;;18.29;64.95
65376;BME280;51976;47.332;9.404;2023-09-12T00:58:01;92569.31;;;18.22;65.55
65376;BME280;51976;47.332;9.404;2023-09-12T01:00:26;92567.72;;;18.34;65.25
65376;BME280;51976;47.332;9.404;2023-09-12T01:02:52;92564.00;;;18.38;64.85
65376;BME280;51976;47.332;9.404;2023-09-12T01:05:20;92569.91;;;18.40;64.40
65376;BME280;51976;47.332;9.404;2023-09-12T01:07:46;92575.47;;;18.32;64.72
65376;BME280;51976;47.332;9.404;2023-09-12T01:10:12;92565.19;;;18.16;64.29
65376;BME280;51976;47.332;9.404;2023-09-12T01:12:38;92570.97;;;18.15;64.31
65376;BME280;51976;47.332;9.404;2023-09-12T01:15:04;92581.63;;;18.08;64.41
65376;BME280;51976;47.332;9.404;2023-09-12T01:17:33;92578.22;;;18.11;64.47
65376;BME280;51976;47.332;9.404;2023-09-12T01:20:00;92581.22;;;18.18;64.36
65376;BME280;51976;47.332;9.404;2023-09-12T01:23:00;92595.06;;;18.13;64.43
65376;BME280;51976;47.332;9.404;2023-09-12T01:25:45;92578.78;;;18.04;64.28
65376;BME280;51976;47.332;9.404;2023-09-12T01:28:16;92592.44;;;18.04;64.57
65376;BME280;51976;47.332;9.404;2023-09-12T01:30:42;92593.94;;;17.93;64.97
65376;BME280;51976;47.332;9.404;2023-09-12T01:33:11;92584.03;;;17.88;65.00
65376;BME280;51976;47.332;9.404;2023-09-12T01:35:36;92594.28;;;17.91;64.91
65376;BME280;51976;47.332;9.404;2023-09-12T01:38:01;92592.41;;;17.83;65.60
65376;BME280;51976;47.332;9.404;2023-09-12T01:40:34;92593.53;;;17.82;65.83
65376;BME280;51976;47.332;9.404;2023-09-12T01:43:00;92598.06;;;17.78;65.59
65376;BME280;51976;47.332;9.404;2023-09-12T01:45:28;92599.00;;;17.82;65.74
65376;BME280;51976;47.332;9.404;2023-09-12T01:47:54;92596.28;;;17.82;65.59
65376;BME280;51976;47.332;9.404;2023-09-12T01:50:20;92604.88;;;17.72;65.57
65376;BME280;51976;47.332;9.404;2023-09-12T01:52:47;92595.56;;;17.73;65.87
65376;BME280;51976;47.332;9.404;2023-09-12T01:55:14;92590.34;;;17.80;65.69
65376;BME280;51976;47.332;9.404;2023-09-12T01:57:40;92597.34;;;17.69;65.75
65376;BME280;51976;47.332;9.404;2023-09-12T02:00:06;92588.69;;;17.67;65.96
65376;BME280;51976;47.332;9.404;2023-09-12T02:02:32;92590.78;;;17.62;66.16
65376;BME280;51976;47.332;9.404;2023-09-12T02:05:11;92603.00;;;17.55;66.75
65376;BME280;51976;47.332;9.404;2023-09-12T02:07:41;92603.47;;;17.66;66.58
65376;BME280;51976;47.332;9.404;2023-09-12T02:10:07;92588.34;;;17.48;66.77
65376;BME280;51976;47.332;9.404;2023-09-12T02:12:32;92601.66;;;17.70;66.42
65376;BME280;51976;47.332;9.404;2023-09-12T02:14:58;92598.94;;;17.70;66.16
65376;BME280;51976;47.332;9.404;2023-09-12T02:17:23;92601.84;;;17.65;66.11
65376;BME280;51976;47.332;9.404;2023-09-12T02:19:49;92603.06;;;17.76;65.86
65376;BME280;51976;47.332;9.404;2023-09-12T02:22:14;92603.06;;;17.76;65.88
65376;BME280;51976;47.332;9.404;2023-09-12T02:24:40;92602.75;;;17.78;65.73
65376;BME280;51976;47.332;9.404;2023-09-12T02:27:05;92600.06;;;17.69;66.30
65376;BME280;51976;47.332;9.404;2023-09-12T02:29:30;92606.19;;;17.57;66.40
65376;BME280;51976;47.332;9.404;2023-09-12T02:31:58;92604.22;;;17.46;66.57
65376;BME280;51976;47.332;9.404;2023-09-12T02:34:23;92612.16;;;17.51;66.41
65376;BME280;51976;47.332;9.404;2023-09-12T02:36:49;92612.53;;;17.49;66.46
65376;BME280;51976;47.332;9.404;2023-09-12T02:39:14;92609.81;;;17.49;66.67
65376;BME280;51976;47.332;9.404;2023-09-12T02:41:39;92614.22;;;17.54;66.46
65376;BME280;51976;47.332;9.404;2023-09-12T02:44:05;92605.16;;;17.50;66.80
65376;BME280;51976;47.332;9.404;2023-09-12T02:46:30;92600.59;;;17.54;66.50
65376;BME280;51976;47.332;9.404;2023-09-12T02:48:56;92603.81;;;17.56;65.90
65376;BME280;51976;47.332;9.404;2023-09-12T02:51:21;92591.94;;;17.31;66.38
65376;BME280;51976;47.332;9.404;2023-09-12T02:53:46;92594.47;;;17.36;66.94
65376;BME280;51976;47.332;9.404;2023-09-12T02:56:12;92604.63;;;17.27;66.93
65376;BME280;51976;47.332;9.404;2023-09-12T02:58:37;92599.91;;;17.15;67.27
65376;BME280;51976;47.332;9.404;2023-09-12T03:01:03;92601.84;;;17.36;66.87
65376;BME280;51976;47.332;9.404;2023-09-12T03:03:31;92593.06;;;17.30;66.83
65376;BME280;51976;47.332;9.404;2023-09-12T03:06:00;92583.38;;;17.20;66.78
65376;BME280;51976;47.332;9.404;2023-09-12T03:08:27;92601.19;;;17.39;66.90
65376;BME280;51976;47.332;9.404;2023-09-12T03:10:54;92593.31;;;17.46;66.44
65376;BME280;51976;47.332;9.404;2023-09-12T03:13:20;92590.03;;;17.52;66.50
65376;BME280;51976;47.332;9.404;2023-09-12T03:15:45;92598.34;;;17.56;66.60
65376;BME280;51976;47.332;9.404;2023-09-12T03:18:11;92581.03;;;17.31;66.74
65376;BME280;51976;47.332;9.404;2023-09-12T03:20:38;92585.03;;;17.34;67.08
65376;BME280;51976;47.332;9.404;2023-09-12T03:23:04;92583.72;;;17.40;66.93
65376;BME280;51976;47.332;9.404;2023-09-12T03:25:29;92593.63;;;17.44;67.05
65376;BME280;51976;47.332;9.404;2023-09-12T03:27:55;92591.91;;;17.40;67.09
65376;BME280;51976;47.332;9.404;2023-09-12T03:30:20;92589.94;;;17.49;67.23
65376;BME280;51976;47.332;9.404;2023-09-12T03:32:46;92577.28;;;17.44;67.14
65376;BME280;51976;47.332;9.404;2023-09-12T03:35:11;92570.09;;;17.40;66.71
65376;BME280;51976;47.332;9.404;2023-09-12T03:37:37;92580.25;;;17.51;67.02
65376;BME280;51976;47.332;9.404;2023-09-12T03:40:06;92581.41;;;17.50;67.00
65376;BME280;51976;47.332;9.404;2023-09-12T03:42:32;92582.41;;;17.46;66.82
65376;BME280;51976;47.332;9.404;2023-09-12T03:44:57;92581.38;;;17.30;67.08
65376;BME280;51976;47.332;9.404;2023-09-12T03:47:23;92577.38;;;17.27;67.47
65376;BME280;51976;47.332;9.404;2023-09-12T03:49:48;92586.81;;;17.00;67.93
65376;BME280;51976;47.332;9.404;2023-09-12T03:52:13;92586.47;;;17.10;67.70
65376;BME280;51976;47.332;9.404;2023-09-12T03:54:39;92591.06;;;17.18;67.81
65376;BME280;51976;47.332;9.404;2023-09-12T03:57:06;92587.47;;;17.26;67.45
65376;BME280;51976;47.332;9.404;2023-09-12T03:59:31;92583.16;;;17.25;67.49
65376;BME280;51976;47.332;9.404;2023-09-12T04:01:56;92588.13;;;17.23;67.70
65376;BME280;51976;47.332;9.404;2023-09-12T04:04:22;92591.47;;;17.29;67.50
65376;BME280;51976;47.332;9.404;2023-09-12T04:06:47;92588.53;;;17.13;67.94
65376;BME280;51976;47.332;9.404;2023-09-12T04:09:12;92585.41;;;17.23;67.79
65376;BME280;51976;47.332;9.404;2023-09-12T04:11:38;92596.78;;;17.25;67.33
65376;BME280;51976;47.332;9.404;2023-09-12T04:14:03;92588.13;;;17.23;67.27
65376;BME280;51976;47.332;9.404;2023-09-12T04:16:29;92592.75;;;17.32;67.11
65376;BME280;51976;47.332;9.404;2023-09-12T04:18:54;92591.25;;;17.13;67.73
65376;BME280;51976;47.332;9.404;2023-09-12T04:21:19;92593.19;;;17.13;68.21
65376;BME280;51976;47.332;9.404;2023-09-12T04:23:45;92593.47;;;17.20;68.27
65376;BME280;51976;47.332;9.404;2023-09-12T04:26:10;92572.81;;;17.19;67.67
65376;BME280;51976;47.332;9.404;2023-09-12T04:28:36;92585.75;;;17.22;67.89
65376;BME280;51976;47.332;9.404;2023-09-12T04:31:03;92589.72;;;17.24;67.97
65376;BME280;51976;47.332;9.404;2023-09-12T04:33:28;92594.25;;;17.20;68.04
65376;BME280;51976;47.332;9.404;2023-09-12T04:35:54;92594.53;;;17.27;67.97
65376;BME280;51976;47.332;9.404;2023-09-12T04:38:19;92587.47;;;17.26;67.62
65376;BME280;51976;47.332;9.404;2023-09-12T04:40:56;92590.78;;;17.11;67.94
65376;BME280;51976;47.332;9.404;2023-09-12T04:43:22;92593.06;;;17.01;68.25
65376;BME280;51976;47.332;9.404;2023-09-12T04:45:48;92589.38;;;16.97;68.81
65376;BME280;51976;47.332;9.404;2023-09-12T04:48:14;92589.75;;;16.95;69.17
65376;BME280;51976;47.332;9.404;2023-09-12T04:50:42;92585.53;;;16.98;69.08
65376;BME280;51976;47.332;9.404;2023-09-12T04:53:08;92580.91;;;16.98;69.20
65376;BME280;51976;47.332;9.404;2023-09-12T04:55:35;92576.97;;;16.87;69.28
65376;BME280;51976;47.332;9.404;2023-09-12T04:58:01;92586.66;;;16.97;69.69
65376;BME280;51976;47.332;9.404;2023-09-12T05:00:26;92573.97;;;17.09;69.28
65376;BME280;51976;47.332;9.404;2023-09-12T05:02:52;92566.59;;;17.10;68.77
65376;BME280;51976;47.332;9.404;2023-09-12T05:05:17;92573.31;;;17.12;68.98
65376;BME280;51976;47.332;9.404;2023-09-12T05:07:42;92587.38;;;17.23;68.94
65376;BME280;51976;47.332;9.404;2023-09-12T05:10:08;92578.13;;;17.86;75.39
65376;BME280;51976;47.332;9.404;2023-09-12T05:12:33;92560.84;;;18.15;74.30
65376;BME280;51976;47.332;9.404;2023-09-12T05:14:59;92587.28;;;18.36;72.15
65376;BME280;51976;47.332;9.404;2023-09-12T05:17:24;92587.00;;;18.16;69.85
65376;BME280;51976;47.332;9.404;2023-09-12T05:19:50;92588.84;;;17.71;67.07
65376;BME280;51976;47.332;9.404;2023-09-12T05:22:15;92581.66;;;17.66;69.13
65376;BME280;51976;47.332;9.404;2023-09-12T05:24:41;92587.84;;;17.75;67.50
65376;BME280;51976;47.332;9.404;2023-09-12T05:27:06;92593.81;;;17.69;67.12
65376;BME280;51976;47.332;9.404;2023-09-12T05:29:32;92600.88;;;17.40;67.89
65376;BME280;51976;47.332;9.404;2023-09-12T05:31:57;92600.59;;;17.54;67.59
65376;BME280;51976;47.332;9.404;2023-09-12T05:34:23;92602.81;;;17.60;66.93
65376;BME280;51976;47.332;9.404;2023-09-12T05:36:48;92610.66;;;17.62;67.38
65376;BME280;51976;47.332;9.404;2023-09-12T05:39:14;92600.09;;;17.60;66.95
65376;BME280;51976;47.332;9.404;2023-09-12T05:41:39;92606.34;;;17.61;66.73
65376;BME280;51976;47.332;9.404;2023-09-12T05:44:05;92609.41;;;17.59;66.96
65376;BME280;51976;47.332;9.404;2023-09-12T05:46:30;92605.41;;;17.57;67.20
65376;BME280;51976;47.332;9.404;2023-09-12T05:48:56;92603.34;;;17.54;67.50
65376;BME280;51976;47.332;9.404;2023-09-12T05:51:21;92610.34;;;17.64;67.28
65376;BME280;51976;47.332;9.404;2023-09-12T05:53:46;92609.38;;;17.68;67.24
65376;BME280;51976;47.332;9.404;2023-09-12T05:56:12;92612.09;;;17.68;66.97
65376;BME280;51976;47.332;9.404;2023-09-12T05:58:38;92606.31;;;17.40;67.39
65376;BME280;51976;47.332;9.404;2023-09-12T06:01:08;92610.81;;;17.36;67.71
65376;BME280;51976;47.332;9.404;2023-09-12T06:03:34;92615.59;;;17.48;67.53
65376;BME280;51976;47.332;9.404;2023-09-12T06:05:59;92611.03;;;17.52;67.83
65376;BME280;51976;47.332;9.404;2023-09-12T06:08:27;92613.75;;;17.52;67.54
65376;BME280;51976;47.332;9.404;2023-09-12T06:10:52;92619.81;;;17.66;67.07
65376;BME280;51976;47.332;9.404;2023-09-12T06:13:20;92618.34;;;17.69;67.39
65376;BME280;51976;47.332;9.404;2023-09-12T06:15:45;92623.34;;;17.87;67.30
65376;BME280;51976;47.332;9.404;2023-09-12T06:18:11;92619.91;;;17.99;67.34
65376;BME280;51976;47.332;9.404;2023-09-12T06:20:36;92617.81;;;18.17;66.71
65376;BME280;51976;47.332;9.404;2023-09-12T06:23:02;92613.41;;;18.24;66.56
65376;BME280;51976;47.332;9.404;2023-09-12T06:25:29;92619.16;;;18.44;66.33
65376;BME280;51976;47.332;9.404;2023-09-12T06:27:57;92604.59;;;18.40;66.38
65376;BME280;51976;47.332;9.404;2023-09-12T06:30:23;92623.13;;;18.67;65.85
65376;BME280;51976;47.332;9.404;2023-09-12T06:32:48;92615.22;;;18.86;65.38
65376;BME280;51976;47.332;9.404;2023-09-12T06:35:14;92614.09;;;19.00;64.88
65376;BME280;51976;47.332;9.404;2023-09-12T06:37:40;92615.47;;;19.06;64.55
65376;BME280;51976;47.332;9.404;2023-09-12T06:40:07;92609.66;;;19.19;64.26
65376;BME280;51976;47.332;9.404;2023-09-12T06:42:35;92610.16;;;19.34;64.08
65376;BME280;51976;47.332;9.404;2023-09-12T06:45:00;92609.78;;;19.47;63.49
65376;BME280;51976;47.332;9.404;2023-09-12T06:47:26;92610.50;;;19.69;62.70
65376;BME280;51976;47.332;9.404;2023-09-12T06:49:51;92611.81;;;19.87;62.40
65376;BME280;51976;47.332;9.404;2023-09-12T06:52:17;92607.44;;;19.98;62.09
65376;BME280;51976;47.332;9.404;2023-09-12T06:54:44;92613.66;;;19.95;62.10
65376;BME280;51976;47.332;9.404;2023-09-12T06:57:11;92615.53;;;20.07;61.66
65376;BME280;51976;47.332;9.404;2023-09-12T06:59:37;92614.16;;;20.13;61.70
65376;BME280;51976;47.332;9.404;2023-09-12T07:02:03;92593.41;;;20.12;61.11
65376;BME280;51976;47.332;9.404;2023-09-12T07:04:29;92597.94;;;20.20;61.58
65376;BME280;51976;47.332;9.404;2023-09-12T07:06:55;92589.22;;;20.42;61.21
65376;BME280;51976;47.332;9.404;2023-09-12T07:09:23;92607.72;;;20.61;60.79
65376;BME280;51976;47.332;9.404;2023-09-12T07:11:49;92599.25;;;20.66;60.56
65376;BME280;51976;47.332;9.404;2023-09-12T07:14:15;92609.63;;;20.88;60.41
65376;BME280;51976;47.332;9.404;2023-09-12T07:16:40;92610.41;;;21.33;59.65
65376;BME280;51976;47.332;9.404;2023-09-12T07:19:06;92605.31;;;21.66;58.86
65376;BME280;51976;47.332;9.404;2023-09-12T07:21:33;92609.91;;;21.78;58.61
65376;BME280;51976;47.332;9.404;2023-09-12T07:24:00;92604.06;;;21.63;59.20
65376;BME280;51976;47.332;9.404;2023-09-12T07:26:25;92609.84;;;21.58;60.01
65376;BME280;51976;47.332;9.404;2023-09-12T07:28:51;92613.47;;;21.98;59.36
65376;BME280;51976;47.332;9.404;2023-09-12T07:31:16;92604.81;;;21.95;58.80
65376;BME280;51976;47.332;9.404;2023-09-12T07:33:43;92620.34;;;21.72;59.25
65376;BME280;51976;47.332;9.404;2023-09-12T07:36:08;92606.97;;;21.86;58.60
65376;BME280;51976;47.332;9.404;2023-09-12T07:38:34;92605.16;;;21.94;57.99
65376;BME280;51976;47.332;9.404;2023-09-12T07:41:02;92602.06;;;22.31;57.62
65376;BME280;51976;47.332;9.404;2023-09-12T07:43:28;92611.81;;;22.67;56.39
65376;BME280;51976;47.332;9.404;2023-09-12T07:45:57;92614.09;;;23.03;55.23
65376;BME280;51976;47.332;9.404;2023-09-12T07:48:24;92604.81;;;23.34;53.67
65376;BME280;51976;47.332;9.404;2023-09-12T07:50:51;92593.22;;;23.44;53.64
65376;BME280;51976;47.332;9.404;2023-09-12T07:53:17;92603.75;;;23.61;53.38
65376;BME280;51976;47.332;9.404;2023-09-12T07:55:43;92601.78;;;23.62;53.45
65376;BME280;51976;47.332;9.404;2023-09-12T07:58:16;92606.13;;;23.89;52.81
65376;BME280;51976;47.332;9.404;2023-09-12T08:00:43;92607.28;;;24.15;51.82
65376;BME280;51976;47.332;9.404;2023-09-12T08:03:09;92598.53;;;24.06;51.54
65376;BME280;51976;47.332;9.404;2023-09-12T08:05:35;92599.75;;;24.12;51.62
65376;BME280;51976;47.332;9.404;2023-09-12T08:08:01;92610.47;;;24.17;51.76
65376;BME280;51976;47.332;9.404;2023-09-12T08:10:26;92597.16;;;24.22;51.80
65376;BME280;51976;47.332;9.404;2023-09-12T08:12:52;92600.91;;;24.37;51.01
65376;BME280;51976;47.332;9.404;2023-09-12T08:15:17;92606.22;;;24.49;50.82
65376;BME280;51976;47.332;9.404;2023-09-12T08:17:43;92600.84;;;24.63;50.24
65376;BME280;51976;47.332;9.404;2023-09-12T08:20:09;92609.63;;;24.73;50.23
65376;BME280;51976;47.332;9.404;2023-09-12T08:22:36;92619.91;;;24.76;50.51
65376;BME280;51976;47.332;9.404;2023-09-12T08:25:01;92620.66;;;24.73;50.08
65376;BME280;51976;47.332;9.404;2023-09-12T08:27:27;92598.53;;;24.66;49.92
65376;BME280;51976;47.332;9.404;2023-09-12T08:29:53;92621.19;;;24.52;50.33
65376;BME280;51976;47.332;9.404;2023-09-12T08:32:18;92617.75;;;24.28;51.19
65376;BME280;51976;47.332;9.404;2023-09-12T08:34:44;92614.50;;;23.96;51.59
65376;BME280;51976;47.332;9.404;2023-09-12T08:37:09;92614.94;;;23.99;51.20
65376;BME280;51976;47.332;9.404;2023-09-12T08:39:43;92605.50;;;24.26;50.65
65376;BME280;51976;47.332;9.404;2023-09-12T08:42:14;92619.81;;;24.69;49.42
65376;BME280;51976;47.332;9.404;2023-09-12T08:44:41;92622.69;;;24.46;49.95
65376;BME280;51976;47.332;9.404;2023-09-12T08:47:08;92619.50;;;24.44;49.85
65376;BME280;51976;47.332;9.404;2023-09-12T08:49:36;92621.94;;;24.49;50.56
65376;BME280;51976;47.332;9.404;2023-09-12T08:52:05;92611.78;;;24.90;50.06
65376;BME280;51976;47.332;9.404;2023-09-12T08:54:32;92619.13;;;25.49;49.30
65376;BME280;51976;47.332;9.404;2023-09-12T08:56:59;92615.59;;;25.08;49.84
65376;BME280;51976;47.332;9.404;2023-09-12T08:59:29;92608.19;;;25.16;49.31
65376;BME280;51976;47.332;9.404;2023-09-12T09:01:56;92623.41;;;25.03;49.76
65376;BME280;51976;47.332;9.404;2023-09-12T09:04:24;92609.25;;;25.04;49.31
65376;BME280;51976;47.332;9.404;2023-09-12T09:06:55;92611.03;;;25.26;48.29
65376;BME280;51976;47.332;9.404;2023-09-12T09:09:24;92610.50;;;25.10;48.39
65376;BME280;51976;47.332;9.404;2023-09-12T09:11:50;92617.81;;;25.33;48.25
65376;BME280;51976;47.332;9.404;2023-09-12T09:14:15;92613.41;;;25.28;49.75
65376;BME280;51976;47.332;9.404;2023-09-12T09:16:41;92593.50;;;25.49;49.66
65376;BME280;51976;47.332;9.404;2023-09-12T09:19:07;92618.94;;;25.65;49.72
65376;BME280;51976;47.332;9.404;2023-09-12T09:21:36;92611.97;;;25.85;49.67
65376;BME280;51976;47.332;9.404;2023-09-12T09:24:10;92611.28;;;25.51;50.58
65376;BME280;51976;47.332;9.404;2023-09-12T09:26:45;92605.41;;;25.56;48.97
65376;BME280;51976;47.332;9.404;2023-09-12T09:29:14;92609.09;;;25.68;48.82
65376;BME280;51976;47.332;9.404;2023-09-12T09:31:41;92596.22;;;25.45;48.64
65376;BME280;51976;47.332;9.404;2023-09-12T09:34:12;92607.41;;;25.59;48.11
65376;BME280;51976;47.332;9.404;2023-09-12T09:36:41;92605.28;;;25.86;47.74
65376;BME280;51976;47.332;9.404;2023-09-12T09:39:07;92599.41;;;25.47;48.46
65376;BME280;51976;47.332;9.404;2023-09-12T09:41:33;92595.34;;;25.78;47.28
65376;BME280;51976;47.332;9.404;2023-09-12T09:43:59;92587.38;;;26.24;46.38
65376;BME280;51976;47.332;9.404;2023-09-12T09:46:25;92593.88;;;25.91;48.29
65376;BME280;51976;47.332;9.404;2023-09-12T09:48:51;92581.50;;;25.75;47.55
65376;BME280;51976;47.332;9.404;2023-09-12T09:51:17;92597.13;;;26.04;47.67
65376;BME280;51976;47.332;9.404;2023-09-12T09:53:43;92592.47;;;26.19;47.48
65376;BME280;51976;47.332;9.404;2023-09-12T09:56:10;92588.00;;;26.00;48.50
65376;BME280;51976;47.332;9.404;2023-09-12T09:58:48;92580.16;;;26.06;48.30
65376;BME280;51976;47.332;9.404;2023-09-12T10:01:17;92579.09;;;26.24;47.63
65376;BME280;51976;47.332;9.404;2023-09-12T10:03:46;92565.91;;;25.96;47.64
65376;BME280;51976;47.332;9.404;2023-09-12T10:06:16;92577.78;;;26.04;48.19
65376;BME280;51976;47.332;9.404;2023-09-12T10:08:46;92568.97;;;26.43;47.06
65376;BME280;51976;47.332;9.404;2023-09-12T10:11:15;92561.72;;;27.07;45.75
65376;BME280;51976;47.332;9.404;2023-09-12T10:13:57;92555.44;;;27.53;44.74
65376;BME280;51976;47.332;9.404;2023-09-12T10:16:24;92565.28;;;27.40;45.38
65376;BME280;51976;47.332;9.404;2023-09-12T10:18:58;92562.13;;;27.23;45.68
65376;BME280;51976;47.332;9.404;2023-09-12T10:21:29;92558.38;;;26.62;46.62
65376;BME280;51976;47.332;9.404;2023-09-12T10:23:56;92556.44;;;26.01;48.09
65376;BME280;51976;47.332;9.404;2023-09-12T10:26:23;92546.31;;;26.26;47.75
65376;BME280;51976;47.332;9.404;2023-09-12T10:28:50;92557.66;;;26.87;46.76
65376;BME280;51976;47.332;9.404;2023-09-12T10:31:16;92543.16;;;27.25;46.22
65376;BME280;51976;47.332;9.404;2023-09-12T10:33:43;92545.56;;;27.77;44.98
65376;BME280;51976;47.332;9.404;2023-09-12T10:36:11;92536.03;;;28.13;44.35
65376;BME280;51976;47.332;9.404;2023-09-12T10:38:42;92539.63;;;27.82;45.36
65376;BME280;51976;47.332;9.404;2023-09-12T10:41:11;92544.31;;;27.14;46.86
65376;BME280;51976;47.332;9.404;2023-09-12T10:43:38;92538.66;;;26.68;47.89
65376;BME280;51976;47.332;9.404;2023-09-12T10:46:05;92542.22;;;26.75;47.83
65376;BME280;51976;47.332;9.404;2023-09-12T10:48:31;92535.22;;;27.10;47.10
65376;BME280;51976;47.332;9.404;2023-09-12T10:50:58;92542.28;;;26.93;47.64
65376;BME280;51976;47.332;9.404;2023-09-12T10:53:26;92538.69;;;26.78;47.85
65376;BME280;51976;47.332;9.404;2023-09-12T10:56:01;92538.38;;;27.05;46.61
65376;BME280;51976;47.332;9.404;2023-09-12T10:59:09;92541.81;;;26.70;47.57
65376;BME280;51976;47.332;9.404;2023-09-12T11:01:36;92518.13;;;26.72;47.45
65376;BME280;51976;47.332;9.404;2023-09-12T11:04:30;92539.59;;;27.25;46.72
65376;BME280;51976;47.332;9.404;2023-09-12T11:06:55;92534.44;;;27.38;46.96
65376;BME280;51976;47.332;9.404;2023-09-12T11:09:24;92526.56;;;27.33;47.12
65376;BME280;51976;47.332;9.404;2023-09-12T11:12:03;92536.06;;;27.35;47.25
65376;BME280;51976;47.332;9.404;2023-09-12T11:14:30;92527.72;;;27.39;47.25
65376;BME280;51976;47.332;9.404;2023-09-12T11:17:20;92527.75;;;27.46;47.04
65376;BME280;51976;47.332;9.404;2023-09-12T11:19:47;92506.75;;;27.09;48.23
65376;BME280;51976;47.332;9.404;2023-09-12T11:22:27;92515.88;;;27.52;47.83
65376;BME280;51976;47.332;9.404;2023-09-12T11:24:55;92512.25;;;28.16;45.91
65376;BME280;51976;47.332;9.404;2023-09-12T11:27:25;92519.00;;;28.11;45.99
65376;BME280;51976;47.332;9.404;2023-09-12T11:29:51;92515.00;;;28.26;45.91
65376;BME280;51976;47.332;9.404;2023-09-12T11:32:27;92519.38;;;28.24;45.66
65376;BME280;51976;47.332;9.404;2023-09-12T11:34:53;92514.97;;;28.41;45.77
65376;BME280;51976;47.332;9.404;2023-09-12T11:37:23;92514.22;;;28.29;45.79
65376;BME280;51976;47.332;9.404;2023-09-12T11:39:51;92499.13;;;28.45;45.46
65376;BME280;51976;47.332;9.404;2023-09-12T11:42:18;92495.91;;;28.53;44.87
65376;BME280;51976;47.332;9.404;2023-09-12T11:44:44;92495.78;;;28.75;44.63
65376;BME280;51976;47.332;9.404;2023-09-12T11:47:14;92473.47;;;29.00;43.86
65376;BME280;51976;47.332;9.404;2023-09-12T11:49:41;92488.53;;;29.02;43.91
65376;BME280;51976;47.332;9.404;2023-09-12T11:52:10;92486.13;;;28.20;46.01
65376;BME280;51976;47.332;9.404;2023-09-12T11:54:39;92489.69;;;28.17;46.55
65376;BME280;51976;47.332;9.404;2023-09-12T11:57:08;92486.06;;;28.42;45.96
65376;BME280;51976;47.332;9.404;2023-09-12T11:59:40;92485.53;;;28.68;45.19
65376;BME280;51976;47.332;9.404;2023-09-12T12:02:11;92475.78;;;28.35;47.26
65376;BME280;51976;47.332;9.404;2023-09-12T12:04:41;92482.25;;;27.75;48.80
65376;BME280;51976;47.332;9.404;2023-09-12T12:07:08;92477.91;;;27.78;48.67
65376;BME280;51976;47.332;9.404;2023-09-12T12:09:35;92478.59;;;28.21;47.94
65376;BME280;51976;47.332;9.404;2023-09-12T12:12:12;92474.84;;;28.67;46.97
65376;BME280;51976;47.332;9.404;2023-09-12T12:14:40;92472.25;;;28.24;47.78
65376;BME280;51976;47.332;9.404;2023-09-12T12:17:10;92481.88;;;27.77;49.38
65376;BME280;51976;47.332;9.404;2023-09-12T12:19:38;92470.00;;;27.44;50.08
65376;BME280;51976;47.332;9.404;2023-09-12T12:22:07;92481.88;;;27.30;50.59
65376;BME280;51976;47.332;9.404;2023-09-12T12:24:44;92475.13;;;27.10;51.04
65376;BME280;51976;47.332;9.404;2023-09-12T12:27:10;92470.41;;;27.14;51.60
65376;BME280;51976;47.332;9.404;2023-09-12T12:29:38;92473.19;;;27.07;50.99
65376;BME280;51976;47.332;9.404;2023-09-12T12:32:05;92466.78;;;26.78;51.79
65376;BME280;51976;47.332;9.404;2023-09-12T12:34:31;92476.25;;;26.81;51.44
65376;BME280;51976;47.332;9.404;2023-09-12T12:36:57;92467.97;;;26.84;52.22
65376;BME280;51976;47.332;9.404;2023-09-12T12:39:23;92469.56;;;26.78;52.12
65376;BME280;51976;47.332;9.404;2023-09-12T12:41:52;92465.97;;;26.81;51.98
65376;BME280;51976;47.332;9.404;2023-09-12T12:44:18;92464.34;;;26.59;53.10
65376;BME280;51976;47.332;9.404;2023-09-12T12:46:53;92467.13;;;26.52;52.99
65376;BME280;51976;47.332;9.404;2023-09-12T12:49:19;92462.28;;;26.31;52.88
65376;BME280;51976;47.332;9.404;2023-09-12T12:51:46;92459.47;;;26.20;53.03
65376;BME280;51976;47.332;9.404;2023-09-12T12:54:13;92455.84;;;26.02;52.96
65376;BME280;51976;47.332;9.404;2023-09-12T12:56:39;92461.75;;;25.97;52.96
65376;BME280;51976;47.332;9.404;2023-09-12T12:59:06;92471.25;;;26.07;52.82
65376;BME280;51976;47.332;9.404;2023-09-12T13:01:37;92483.84;;;26.01;53.19